Time;durP1;ratioP1;P1;durP2;ratioP2;P2;SDS_P1;SDS_P2;PMS_P1;PMS_P2;Temp;Humidity;BMP_temperature;BMP_pressure;BME280_temperature;BME280_humidity;BME280_pressure;Samples;Min_cycle;Max_cycle;Signal;HPM_P1;HPM_P2
2020/12/14 00:00:39;;;;;;;15.30;12.82;;;;;;;17.67;32.50;93886.16;5087853;28;20055;-50
2020/12/14 00:03:07;;;;;;;15.88;13.32;;;;;;;17.66;32.48;93881.97;5086387;28;20056;-51
2020/12/14 00:05:34;;;;;;;15.05;13.45;;;;;;;17.38;32.77;93879.41;5086590;28;20053;-51
2020/12/14 00:08:01;;;;;;;141.07;115.55;;;;;;;17.57;32.65;93874.25;5087147;28;20059;-54
2020/12/14 00:10:28;;;;;;;50.20;41.72;;;;;;;17.73;32.61;93879.56;5070690;28;20048;-52
2020/12/14 00:12:55;;;;;;;16.60;14.57;;;;;;;17.61;32.46;93877.72;5086579;28;20044;-51
2020/12/14 00:15:22;;;;;;;14.15;12.65;;;;;;;17.60;32.43;93886.75;5086651;28;20051;-53
2020/12/14 00:17:50;;;;;;;14.55;12.38;;;;;;;17.78;32.06;93888.00;5091441;28;20477;-49
2020/12/14 00:20:17;;;;;;;13.52;12.02;;;;;;;17.75;32.46;93891.31;5097340;28;20082;-54
2020/12/14 00:22:44;;;;;;;13.60;11.73;;;;;;;17.82;32.04;93888.84;5097558;28;20048;-55
2020/12/14 00:25:11;;;;;;;13.95;11.68;;;;;;;17.83;32.05;93884.31;5095503;28;20044;-53
2020/12/14 00:27:39;;;;;;;14.23;11.98;;;;;;;17.84;31.91;93905.13;5087926;28;20404;-53
2020/12/14 00:30:06;;;;;;;15.43;12.20;;;;;;;17.82;31.92;93898.66;5085793;28;20055;-52
2020/12/14 00:32:33;;;;;;;13.52;11.90;;;;;;;17.95;31.82;93901.94;5088987;28;20455;-54
2020/12/14 00:35:00;;;;;;;13.50;11.38;;;;;;;17.81;32.04;93903.16;5086251;28;20062;-53
2020/12/14 00:37:27;;;;;;;14.02;12.23;;;;;;;17.63;32.30;93903.81;5088199;28;20363;-52
2020/12/14 00:39:54;;;;;;;14.02;12.50;;;;;;;17.70;32.13;93907.44;5087050;28;20364;-54
2020/12/14 00:42:21;;;;;;;15.05;12.52;;;;;;;17.61;32.14;93904.16;5088380;28;20059;-55
2020/12/14 00:44:48;;;;;;;14.10;11.57;;;;;;;17.57;32.35;93912.00;5086117;28;20379;-54
2020/12/14 00:47:16;;;;;;;14.88;12.15;;;;;;;17.58;32.28;93920.69;5086586;28;20362;-50
2020/12/14 00:49:44;;;;;;;13.93;11.68;;;;;;;17.40;32.62;93922.13;5087588;28;20051;-48
2020/12/14 00:52:11;;;;;;;13.60;12.05;;;;;;;17.34;32.78;93923.47;5088055;28;20048;-52
2020/12/14 00:54:38;;;;;;;14.77;12.30;;;;;;;17.48;32.63;93926.50;5086332;28;20332;-52
2020/12/14 00:57:05;;;;;;;14.77;12.07;;;;;;;17.51;32.34;93923.94;5087650;28;20442;-53
2020/12/14 00:59:32;;;;;;;14.85;11.90;;;;;;;17.61;32.18;93929.81;5084577;28;20048;-54
2020/12/14 01:01:59;;;;;;;13.13;11.50;;;;;;;17.54;32.31;93920.63;5076461;28;20056;-53
2020/12/14 01:04:26;;;;;;;13.90;11.93;;;;;;;17.53;32.27;93934.16;5076881;28;20059;-54
2020/12/14 01:06:55;;;;;;;13.45;11.05;;;;;;;17.47;32.47;93933.66;5076863;28;20044;-52
2020/12/14 01:09:22;;;;;;;15.65;12.20;;;;;;;17.49;32.17;93938.59;5083611;28;20048;-52
2020/12/14 01:11:49;;;;;;;14.10;12.18;;;;;;;17.60;32.18;93942.28;5087154;28;20363;-54
2020/12/14 01:14:16;;;;;;;13.10;11.02;;;;;;;17.38;32.43;93942.84;5087355;28;20055;-50
2020/12/14 01:16:47;;;;;;;11.95;10.48;;;;;;;17.38;32.33;93954.16;5085871;28;20055;-57
2020/12/14 01:19:14;;;;;;;11.90;10.50;;;;;;;17.13;32.56;93948.22;5085643;28;20048;-53
2020/12/14 01:21:41;;;;;;;13.23;10.85;;;;;;;17.39;32.04;93949.66;5087359;28;20052;-51
2020/12/14 01:24:08;;;;;;;10.90;9.75;;;;;;;17.41;31.92;93950.84;5087632;28;20040;-53
2020/12/14 01:26:35;;;;;;;13.50;10.32;;;;;;;17.30;32.19;93952.44;5085263;28;20044;-51
2020/12/14 01:29:02;;;;;;;10.57;9.48;;;;;;;17.19;32.35;93960.09;5091282;28;20052;-50
2020/12/14 01:31:29;;;;;;;12.32;10.57;;;;;;;17.53;31.86;93950.03;5088397;28;20339;-55
2020/12/14 01:33:56;;;;;;;12.07;9.98;;;;;;;17.42;32.24;93959.53;5086690;28;20079;-53
2020/12/14 01:36:24;;;;;;;14.15;10.48;;;;;;;17.30;32.14;93962.25;5084834;28;20045;-53
2020/12/14 01:38:51;;;;;;;12.10;9.98;;;;;;;17.29;32.10;93964.13;5086079;28;20052;-51
2020/12/14 01:41:18;;;;;;;11.05;9.70;;;;;;;17.32;31.90;93965.31;5086458;28;20052;-52
2020/12/14 01:43:45;;;;;;;11.70;9.98;;;;;;;17.50;31.68;93963.91;5086708;28;20063;-56
2020/12/14 01:46:12;;;;;;;12.73;10.40;;;;;;;17.57;31.75;93969.38;5085584;28;20056;-56
2020/12/14 01:48:39;;;;;;;11.82;10.27;;;;;;;17.38;31.89;93958.69;5067117;28;20373;-51
2020/12/14 01:51:08;;;;;;;12.27;10.10;;;;;;;17.18;32.33;93961.22;5087313;28;20457;-49
2020/12/14 01:53:36;;;;;;;12.65;10.00;;;;;;;17.36;32.21;93961.66;5092468;28;20063;-52
2020/12/14 01:56:04;;;;;;;12.27;10.32;;;;;;;17.12;32.43;93962.53;5078354;28;20047;-53
2020/12/14 01:58:31;;;;;;;12.95;10.35;;;;;;;17.23;32.25;93966.25;5095924;28;20075;-54
2020/12/14 02:00:58;;;;;;;12.98;10.82;;;;;;;17.21;32.18;93971.09;5071039;28;20052;-63
2020/12/14 02:03:25;;;;;;;13.38;10.85;;;;;;;17.29;32.09;93971.28;5084583;28;20055;-52
2020/12/14 02:05:53;;;;;;;12.80;10.70;;;;;;;17.32;32.15;93971.38;5084605;28;20052;-51
2020/12/14 02:08:20;;;;;;;11.50;10.30;;;;;;;17.38;31.86;93971.91;5085346;28;20047;-52
2020/12/14 02:10:47;;;;;;;11.88;9.77;;;;;;;17.14;32.06;93965.59;5086182;28;20055;-50
2020/12/14 02:13:14;;;;;;;11.10;9.23;;;;;;;17.26;32.03;93973.50;5085058;28;20048;-56
2020/12/14 02:15:41;;;;;;;12.32;9.82;;;;;;;17.13;32.19;93969.34;5075482;28;20434;-51
2020/12/14 02:18:08;;;;;;;11.23;9.60;;;;;;;17.13;32.25;93974.63;5075691;28;20049;-54
2020/12/14 02:20:35;;;;;;;11.00;9.65;;;;;;;17.02;32.06;93975.47;5074059;28;20056;-52
2020/12/14 02:23:02;;;;;;;12.52;9.73;;;;;;;17.06;32.06;93969.16;5083098;28;20054;-52
2020/12/14 02:25:29;;;;;;;11.77;9.90;;;;;;;17.17;32.06;93972.84;5095450;28;20085;-54
2020/12/14 02:27:59;;;;;;;11.60;10.30;;;;;;;17.04;32.16;93971.38;5095292;28;20052;-55
2020/12/14 02:30:26;;;;;;;11.60;10.18;;;;;;;16.97;32.25;93965.91;5095321;28;20055;-53
2020/12/14 02:32:53;;;;;;;11.95;10.05;;;;;;;17.04;32.05;93966.09;5095261;28;20052;-53
2020/12/14 02:35:20;;;;;;;11.82;9.63;;;;;;;16.93;32.26;93963.19;5095757;28;20071;-56
2020/12/14 02:37:47;;;;;;;13.38;10.48;;;;;;;16.82;32.46;93961.31;5095607;28;20044;-54
2020/12/14 02:40:14;;;;;;;12.45;10.13;;;;;;;16.77;32.61;93961.56;5095334;28;20051;-56
2020/12/14 02:42:41;;;;;;;14.63;10.32;;;;;;;16.90;32.35;93965.69;5095134;28;20055;-56
2020/12/14 02:45:08;;;;;;;12.82;10.40;;;;;;;17.13;32.00;93964.06;5095406;28;20438;-54
2020/12/14 02:47:35;;;;;;;10.88;9.15;;;;;;;17.00;32.02;93959.97;5095345;28;20446;-54
2020/12/14 02:50:04;;;;;;;11.32;9.32;;;;;;;16.84;32.37;93967.03;5095421;28;20051;-54
2020/12/14 02:52:31;;;;;;;10.38;9.27;;;;;;;16.82;32.41;93970.00;5093048;28;20069;-55
2020/12/14 02:54:59;;;;;;;10.50;9.00;;;;;;;16.75;32.77;93966.41;5074470;28;20056;-52
2020/12/14 02:57:26;;;;;;;11.23;9.40;;;;;;;16.78;32.51;93971.03;5074898;28;20083;-57
2020/12/14 02:59:53;;;;;;;12.15;9.93;;;;;;;16.80;32.44;93976.72;5076394;28;21409;-56
2020/12/14 03:02:20;;;;;;;13.60;10.10;;;;;;;16.99;32.15;93973.50;5095257;28;20358;-54
2020/12/14 03:04:47;;;;;;;11.70;9.43;;;;;;;16.87;32.44;93974.28;5095240;28;20378;-56
2020/12/14 03:07:14;;;;;;;11.20;9.30;;;;;;;16.80;32.40;93974.84;5095076;28;20048;-53
2020/12/14 03:09:41;;;;;;;11.48;9.43;;;;;;;16.82;32.34;93969.25;5094913;28;20048;-52
2020/12/14 03:12:08;;;;;;;11.15;9.40;;;;;;;16.83;32.34;93965.50;5097884;28;20443;-53
2020/12/14 03:14:35;;;;;;;11.43;9.38;;;;;;;16.78;32.49;93968.38;5099141;28;20040;-54
2020/12/14 03:17:02;;;;;;;10.70;9.02;;;;;;;16.81;32.34;93963.19;5099063;28;20469;-52
2020/12/14 03:19:29;;;;;;;11.73;10.00;;;;;;;16.77;32.47;93972.13;5098980;28;20052;-52
2020/12/14 03:21:56;;;;;;;11.57;9.45;;;;;;;16.57;32.59;93964.00;5098768;28;20040;-54
2020/12/14 03:24:23;;;;;;;15.15;9.27;;;;;;;16.84;32.31;93962.53;5089430;28;20051;-53
2020/12/14 03:26:51;;;;;;;11.80;9.15;;;;;;;16.91;32.34;93972.50;5078624;28;20059;-55
2020/12/14 03:29:18;;;;;;;10.25;8.80;;;;;;;16.84;32.43;93972.31;5078780;28;20052;-53
2020/12/14 03:31:45;;;;;;;10.50;8.98;;;;;;;16.80;32.36;93960.88;5078338;28;20360;-54
2020/12/14 03:34:13;;;;;;;10.63;8.90;;;;;;;16.75;32.39;93959.25;5078672;28;20060;-54
2020/12/14 03:36:40;;;;;;;13.75;9.50;;;;;;;16.97;32.03;93965.91;5078844;28;20064;-54
2020/12/14 03:39:07;;;;;;;11.25;9.18;;;;;;;16.85;32.17;93960.66;5078353;28;20382;-53
2020/12/14 03:41:34;;;;;;;12.40;9.25;;;;;;;16.64;32.49;93966.81;5077858;28;20051;-56
2020/12/14 03:44:02;;;;;;;10.13;8.77;;;;;;;16.95;32.27;93968.13;5078309;28;20048;-53
2020/12/14 03:46:31;;;;;;;9.70;8.05;;;;;;;16.78;32.04;93965.75;5078279;28;20056;-52
2020/12/14 03:48:59;;;;;;;12.68;8.40;;;;;;;16.70;32.07;93967.41;5078205;28;20048;-51
2020/12/14 03:51:26;;;;;;;9.60;8.50;;;;;;;16.81;31.95;93971.13;5077830;28;20047;-52
2020/12/14 03:53:53;;;;;;;10.55;8.48;;;;;;;16.90;31.95;93970.97;5093207;28;20040;-54
2020/12/14 03:56:24;;;;;;;9.25;7.72;;;;;;;16.94;31.88;93979.78;5098458;28;20048;-53
2020/12/14 03:58:52;;;;;;;10.20;8.18;;;;;;;16.96;31.79;93974.94;5098140;28;20044;-52
2020/12/14 04:01:24;;;;;;;9.15;8.15;;;;;;;16.85;31.89;93984.41;5079936;28;20051;-54
2020/12/14 04:03:51;;;;;;;9.95;8.30;;;;;;;16.97;31.75;93997.59;5098233;28;20362;-54
2020/12/14 04:06:25;;;;;;;9.73;7.75;;;;;;;17.19;31.82;93989.16;5098313;28;20040;-54
2020/12/14 04:08:53;;;;;;;10.20;8.40;;;;;;;16.97;31.64;93988.91;5098250;28;20050;-54
2020/12/14 04:11:21;;;;;;;9.30;8.20;;;;;;;16.91;31.75;93988.34;5097552;28;20047;-53
2020/12/14 04:13:48;;;;;;;10.07;8.20;;;;;;;16.78;32.24;93989.50;5097956;28;20044;-55
2020/12/14 04:16:15;;;;;;;9.43;8.07;;;;;;;16.89;31.96;93991.31;5098092;28;20055;-51
2020/12/14 04:18:43;;;;;;;9.50;7.47;;;;;;;17.05;31.57;93994.03;5097048;28;20047;-53
2020/12/14 04:21:10;;;;;;;10.55;8.40;;;;;;;16.62;32.34;93999.94;5097363;28;20075;-51
2020/12/14 04:23:37;;;;;;;10.43;8.07;;;;;;;16.50;32.58;93999.97;5097069;28;20051;-55
2020/12/14 04:26:05;;;;;;;10.30;8.32;;;;;;;16.02;33.48;94010.16;5083795;28;20060;-54
2020/12/14 04:28:32;;;;;;;8.68;7.50;;;;;;;16.50;32.54;94000.72;5077511;28;20048;-55
2020/12/14 04:31:02;;;;;;;10.65;7.93;;;;;;;16.50;32.32;94005.22;5077074;28;20072;-54
2020/12/14 04:33:30;;;;;;;10.98;7.95;;;;;;;16.70;32.12;94014.16;5077233;28;20064;-56
2020/12/14 04:35:57;;;;;;;10.05;8.13;;;;;;;16.74;31.90;94013.16;5077487;28;20048;-56
2020/12/14 04:38:24;;;;;;;11.50;8.30;;;;;;;17.03;31.50;94019.25;5077277;28;20056;-52
2020/12/14 04:40:54;;;;;;;9.40;7.95;;;;;;;16.81;31.77;94015.22;5076077;28;20049;-53
2020/12/14 04:43:22;;;;;;;10.05;7.30;;;;;;;16.74;32.00;94015.03;5077211;28;20044;-54
2020/12/14 04:45:50;;;;;;;12.02;8.38;;;;;;;16.56;32.22;94020.50;5059595;28;20060;-54
2020/12/14 04:48:17;;;;;;;9.82;8.23;;;;;;;16.83;31.79;94029.63;5059694;28;20074;-51
2020/12/14 04:50:45;;;;;;;9.88;7.93;;;;;;;16.94;31.54;94036.00;5059020;28;20044;-56
2020/12/14 04:53:12;;;;;;;10.13;8.25;;;;;;;16.96;31.43;94025.09;5068462;28;20043;-52
2020/12/14 04:55:39;;;;;;;11.18;8.48;;;;;;;17.03;31.77;94043.78;5097317;28;20481;-54
2020/12/14 04:58:07;;;;;;;11.05;8.10;;;;;;;16.98;31.54;94036.09;5097337;28;20059;-54
2020/12/14 05:00:35;;;;;;;10.60;8.55;;;;;;;17.13;31.15;94042.53;5096524;28;20044;-56
2020/12/14 05:03:03;;;;;;;9.73;7.45;;;;;;;17.02;31.45;94044.88;5097303;28;20043;-53
2020/12/14 05:05:30;;;;;;;10.93;8.90;;;;;;;17.12;31.22;94036.47;5097047;28;20048;-54
2020/12/14 05:07:58;;;;;;;9.80;7.90;;;;;;;17.02;31.31;94047.53;5092133;28;20059;-53
2020/12/14 05:10:27;;;;;;;8.82;7.32;;;;;;;17.08;31.08;94051.47;5075803;28;20052;-55
2020/12/14 05:12:54;;;;;;;10.18;8.52;;;;;;;16.95;31.53;94052.59;5091707;28;20044;-56
2020/12/14 05:15:21;;;;;;;8.43;7.40;;;;;;;16.91;31.43;94067.56;5096726;28;20047;-52
2020/12/14 05:18:06;;;;;;;9.80;8.15;;;;;;;16.94;31.25;94066.91;5096819;28;20056;-50
2020/12/14 05:20:34;;;;;;;9.20;7.88;;;;;;;16.91;31.49;94070.19;5096353;28;20439;-52
2020/12/14 05:23:05;;;;;;;10.88;7.75;;;;;;;16.41;32.20;94073.94;5078750;28;20060;-54
2020/12/14 05:25:33;;;;;;;12.10;8.18;;;;;;;16.06;32.99;94075.44;5079861;28;20383;-57
2020/12/14 05:28:16;;;;;;;9.73;7.65;;;;;;;16.04;33.04;94073.88;5076339;28;20059;-51
2020/12/14 05:30:48;;;;;;;10.98;7.93;;;;;;;16.52;32.45;94072.41;5075882;28;20044;-47
2020/12/14 05:33:21;;;;;;;9.48;7.72;;;;;;;16.52;32.31;94077.69;5076155;28;20359;-55
2020/12/14 05:35:48;;;;;;;9.57;7.57;;;;;;;16.54;31.99;94080.75;5075766;28;20056;-54
2020/12/14 05:38:20;;;;;;;10.75;8.10;;;;;;;16.56;32.01;94089.13;5076249;28;20049;-53
2020/12/14 05:41:00;;;;;;;9.43;7.50;;;;;;;16.81;31.59;94089.91;5058180;28;20051;-55
2020/12/14 05:43:29;;;;;;;9.50;7.60;;;;;;;17.00;31.36;94102.53;5076047;28;20044;-49
2020/12/14 05:46:15;;;;;;;7.90;6.53;;;;;;;16.91;31.57;94099.22;5076192;28;20376;-52
2020/12/14 05:48:43;;;;;;;8.80;6.82;;;;;;;16.82;31.49;94095.94;5076013;28;20332;-56
2020/12/14 05:51:12;;;;;;;13.32;8.35;;;;;;;16.62;31.95;94090.44;5075395;28;20056;-52
2020/12/14 05:53:51;;;;;;;8.57;7.50;;;;;;;16.71;31.64;94102.78;5088908;28;20048;-52
2020/12/14 05:56:19;;;;;;;10.23;7.70;;;;;;;16.79;31.46;94097.38;5096022;28;20040;-59
2020/12/14 05:58:51;;;;;;;9.07;7.72;;;;;;;16.05;33.30;94098.38;5096163;28;20052;-58
2020/12/14 06:01:18;;;;;;;14.57;8.87;;;;;;;15.77;33.71;94105.34;5080757;28;20063;-42
2020/12/14 06:03:46;;;;;;;10.18;8.55;;;;;;;15.40;34.39;94105.16;5075780;28;20074;-48
2020/12/14 06:06:13;;;;;;;10.43;8.23;;;;;;;16.44;32.41;94115.50;5058413;28;20431;-47
2020/12/14 06:08:46;;;;;;;11.70;8.80;;;;;;;16.73;31.88;94116.44;5058063;28;20374;-47
2020/12/14 06:11:14;;;;;;;;;;;;;;;16.80;31.89;94119.28;5075574;28;20047;-48
2020/12/14 06:13:51;;;;;;;10.77;8.40;;;;;;;16.88;31.64;94126.31;5075512;28;19913;-54
2020/12/14 06:16:21;;;;;;;9.85;8.20;;;;;;;16.99;31.59;94127.41;5075566;28;20371;-69
2020/12/14 06:18:49;;;;;;;11.73;8.45;;;;;;;16.99;31.81;94132.69;5075597;28;20053;-50
2020/12/14 06:21:28;;;;;;;12.80;8.45;;;;;;;17.08;31.26;94138.63;5057473;28;20052;-50
2020/12/14 06:23:57;;;;;;;11.07;8.73;;;;;;;16.85;31.73;94138.28;5090696;28;20044;-69
2020/12/14 06:26:24;;;;;;;12.45;8.52;;;;;;;17.23;30.96;94137.94;5095710;28;20051;-48
2020/12/14 06:28:53;;;;;;;11.50;8.98;;;;;;;16.97;31.66;94140.19;5077489;28;20040;-49
2020/12/14 06:31:39;;;;;;;13.60;8.80;;;;;;;16.87;31.72;94149.28;5086942;28;20051;-49
2020/12/14 06:34:31;;;;;;;10.00;8.45;;;;;;;17.21;31.33;94156.00;5075326;28;20060;-49
2020/12/14 06:37:00;;;;;;;9.95;8.25;;;;;;;17.32;31.30;94152.91;5075492;28;20037;-51
2020/12/14 06:39:37;;;;;;;11.63;8.65;;;;;;;17.15;31.27;94156.53;5075250;28;20051;-49
2020/12/14 06:42:10;;;;;;;12.10;8.68;;;;;;;17.01;31.44;94162.19;5074814;28;20044;-50
2020/12/14 06:44:43;;;;;;;;;;;;;;;17.17;31.18;94170.94;5075669;28;20367;-48
2020/12/14 06:47:14;;;;;;;10.80;7.93;;;;;;;17.18;31.18;94171.75;5074884;28;20345;-47
2020/12/14 06:49:42;;;;;;;11.05;7.90;;;;;;;17.12;31.21;94171.19;5074911;28;20271;-51
2020/12/14 06:52:10;;;;;;;10.65;7.95;;;;;;;16.97;31.50;94177.16;5075416;28;20056;-50
2020/12/14 06:54:44;;;;;;;10.35;8.05;;;;;;;17.13;31.22;94174.59;5095288;28;20048;-55
2020/12/14 06:57:12;;;;;;;9.40;7.35;;;;;;;16.84;31.57;94175.59;5095454;28;20048;-49
2020/12/14 06:59:40;;;;;;;9.77;7.82;;;;;;;17.06;31.41;94174.38;5095082;28;20047;-52
2020/12/14 07:02:08;;;;;;;10.00;7.50;;;;;;;17.11;31.21;94182.84;5094540;28;20051;-51
2020/12/14 07:04:40;;;;;;;9.27;6.72;;;;;;;17.06;31.15;94182.31;5095331;28;20051;-53
2020/12/14 07:07:07;;;;;;;9.45;7.15;;;;;;;17.14;31.20;94189.34;5095443;28;20114;-51
2020/12/14 07:09:36;;;;;;;10.10;7.70;;;;;;;17.17;31.11;94199.25;5094965;28;20442;-51
2020/12/14 07:12:09;;;;;;;8.05;6.65;;;;;;;17.30;30.81;94194.72;5094938;28;20043;-50
2020/12/14 07:14:57;;;;;;;9.77;7.18;;;;;;;17.42;30.63;94197.34;5095067;28;20054;-52
2020/12/14 07:17:28;;;;;;;9.15;7.20;;;;;;;17.33;30.76;94204.63;5094964;28;20055;-51
2020/12/14 07:19:59;;;;;;;9.10;6.80;;;;;;;17.30;30.78;94200.03;5095056;28;20048;-49
2020/12/14 07:22:48;;;;;;;7.80;6.72;;;;;;;17.06;30.86;94201.56;5094507;28;20514;-51
2020/12/14 07:25:22;;;;;;;7.55;6.40;;;;;;;17.11;31.03;94203.22;5094819;28;20044;-51
2020/12/14 07:27:50;;;;;;;8.60;7.30;;;;;;;17.21;31.22;94202.78;5095065;28;20048;-51
2020/12/14 07:30:20;;;;;;;10.27;7.00;;;;;;;17.19;31.17;94205.00;5094876;28;20386;-52
2020/12/14 07:32:47;;;;;;;9.90;7.68;;;;;;;17.17;31.08;94209.81;5076148;28;20051;-52
2020/12/14 07:35:14;;;;;;;10.75;7.30;;;;;;;17.10;31.14;94218.28;5074870;28;20056;-51
2020/12/14 07:37:42;;;;;;;11.25;7.32;;;;;;;17.37;30.85;94216.06;5074674;28;20048;-52
2020/12/14 07:40:10;;;;;;;8.55;6.70;;;;;;;17.07;31.05;94213.66;5074504;28;20451;-50
2020/12/14 07:42:44;;;;;;;8.95;7.47;;;;;;;17.09;30.92;94222.03;5074370;28;20040;-49
2020/12/14 07:45:20;;;;;;;10.00;7.50;;;;;;;17.24;30.70;94221.38;5074531;28;20820;-48
2020/12/14 07:47:50;;;;;;;10.00;8.30;;;;;;;17.26;30.85;94226.34;5074582;28;20052;-50
2020/12/14 07:50:21;;;;;;;10.93;8.13;;;;;;;17.40;30.92;94220.69;5074424;28;20049;-53
2020/12/14 07:52:50;;;;;;;13.95;8.55;;;;;;;17.37;30.86;94226.66;5080308;28;20493;-51
2020/12/14 07:55:18;;;;;;;12.43;8.40;;;;;;;17.10;31.15;94231.50;5094342;28;20044;-49
2020/12/14 07:57:47;;;;;;;11.48;8.18;;;;;;;17.54;30.58;94231.69;5095072;28;20058;-49
2020/12/14 08:00:16;;;;;;;13.32;8.05;;;;;;;17.18;31.07;94233.28;5098289;28;20442;-51
2020/12/14 08:02:44;;;;;;;11.90;8.20;;;;;;;17.32;31.09;94238.22;5097920;28;20044;-51
2020/12/14 08:05:13;;;;;;;9.27;7.90;;;;;;;17.32;31.17;94245.38;5098138;28;20351;-50
2020/12/14 08:07:44;;;;;;;11.32;8.85;;;;;;;17.37;31.19;94243.25;5098221;28;20052;-50
2020/12/14 08:10:12;;;;;;;11.27;8.93;;;;;;;17.12;31.32;94241.72;5098014;28;20048;-48
2020/12/14 08:12:43;;;;;;;12.75;8.63;;;;;;;17.44;31.50;94237.44;5080076;28;20044;-49
2020/12/14 08:15:15;;;;;;;11.85;8.30;;;;;;;17.53;31.76;94251.31;5097902;28;20071;-50
2020/12/14 08:17:42;;;;;;;10.98;7.25;;;;;;;17.41;31.37;94254.72;5063892;28;20051;-49
2020/12/14 08:20:33;;;;;;;9.93;7.53;;;;;;;17.20;31.75;94251.44;5097794;28;20449;-51
2020/12/14 08:23:02;;;;;;;11.95;8.27;;;;;;;17.41;31.31;94259.22;5077231;28;20442;-49
2020/12/14 08:25:31;;;;;;;9.52;7.47;;;;;;;17.48;31.14;94259.47;5077438;28;20394;-51
2020/12/14 08:28:03;;;;;;;8.77;7.65;;;;;;;17.52;31.35;94255.06;5077562;28;20455;-50
2020/12/14 08:30:31;;;;;;;9.45;6.97;;;;;;;17.44;31.39;94261.22;5077365;28;20056;-50
2020/12/14 08:33:19;;;;;;;8.50;7.55;;;;;;;17.41;31.65;94253.94;5077078;28;20051;-50
2020/12/14 08:35:48;;;;;;;10.57;7.57;;;;;;;17.23;31.72;94254.19;5077347;28;20436;-50
2020/12/14 08:38:21;;;;;;;10.82;7.15;;;;;;;17.63;31.28;94260.66;5077286;28;20049;-50
2020/12/14 08:41:01;;;;;;;8.48;6.85;;;;;;;17.32;31.96;94261.22;5077193;28;20051;-53
2020/12/14 08:43:29;;;;;;;9.75;7.65;;;;;;;17.31;31.95;94259.69;5077123;28;20049;-50
2020/12/14 08:46:03;;;;;;;8.95;6.97;;;;;;;17.46;31.58;94266.97;5077277;28;20451;-49
2020/12/14 08:48:50;;;;;;;7.88;6.40;;;;;;;17.44;31.85;94263.88;5077282;28;20076;-51
2020/12/14 08:51:30;;;;;;;8.82;6.20;;;;;;;17.47;31.61;94258.69;5076665;28;20055;-50
2020/12/14 08:54:11;;;;;;;9.30;6.43;;;;;;;17.35;31.79;94258.69;5092743;28;20047;-52
2020/12/14 08:56:39;;;;;;;7.45;6.43;;;;;;;17.27;31.93;94249.78;5097323;28;20371;-50
2020/12/14 08:59:20;;;;;;;8.50;6.97;;;;;;;17.49;31.79;94255.72;5097397;28;20048;-51
2020/12/14 09:02:08;;;;;;;9.68;7.13;;;;;;;17.59;31.75;94255.25;5096849;28;20048;-53
2020/12/14 09:04:37;;;;;;;10.07;7.55;;;;;;;17.48;32.26;94256.81;5097119;28;20040;-49
2020/12/14 09:07:04;;;;;;;7.95;6.60;;;;;;;17.56;31.77;94256.69;5097021;28;20043;-54
2020/12/14 09:09:42;;;;;;;8.40;6.90;;;;;;;17.56;31.88;94261.22;5096629;28;20493;-50
2020/12/14 09:12:11;;;;;;;10.50;7.68;;;;;;;17.49;31.86;94250.44;5096681;28;20044;-48
2020/12/14 09:14:39;;;;;;;9.88;7.03;;;;;;;17.46;31.86;94251.09;5097055;28;20054;-51
2020/12/14 09:17:26;;;;;;;9.70;7.35;;;;;;;17.39;32.43;94253.50;5096804;28;20443;-54
2020/12/14 09:19:53;;;;;;;8.13;7.10;;;;;;;17.40;32.43;94252.41;5078757;28;20050;-47
2020/12/14 09:22:21;;;;;;;7.95;6.55;;;;;;;17.32;32.08;94251.41;5096128;28;20055;-50
2020/12/14 09:24:49;;;;;;;8.70;7.15;;;;;;;17.26;32.28;94258.81;5096786;28;20044;-50
2020/12/14 09:27:16;;;;;;;7.38;6.03;;;;;;;17.43;31.99;94257.03;5096571;28;20054;-51
2020/12/14 09:29:43;;;;;;;6.47;5.68;;;;;;;17.33;32.16;94252.19;5096671;28;20358;-50
2020/12/14 09:32:11;;;;;;;7.07;5.60;;;;;;;17.48;31.61;94243.59;5086813;28;20463;-50
2020/12/14 09:34:39;;;;;;;7.45;5.60;;;;;;;17.37;32.19;94251.19;5076412;28;20044;-51
2020/12/14 09:37:07;;;;;;;7.55;6.07;;;;;;;16.95;32.36;94251.41;5076244;28;20463;-51
2020/12/14 09:39:35;;;;;;;7.72;6.05;;;;;;;17.40;32.38;94252.41;5075944;28;20455;-51
2020/12/14 09:42:03;;;;;;;6.20;5.25;;;;;;;17.65;31.53;94248.63;5075698;28;20344;-54
2020/12/14 09:44:31;;;;;;;9.75;6.60;;;;;;;17.37;32.07;94255.72;5075939;28;20056;-52
2020/12/14 09:47:00;;;;;;;7.63;5.68;;;;;;;17.35;32.09;94252.63;5075974;28;20056;-49
2020/12/14 09:49:28;;;;;;;6.25;5.32;;;;;;;17.27;31.83;94249.78;5075738;28;20048;-50
2020/12/14 09:51:56;;;;;;;7.13;5.72;;;;;;;17.32;31.75;94253.28;5075641;28;20055;-52
2020/12/14 09:54:23;;;;;;;8.20;5.53;;;;;;;17.47;31.77;94250.00;5095046;28;20048;-52
2020/12/14 09:56:50;;;;;;;6.18;4.97;;;;;;;17.61;31.50;94250.41;5096161;28;20051;-51
2020/12/14 09:59:17;;;;;;;7.57;6.13;;;;;;;17.35;31.66;94250.00;5095876;28;20047;-51
2020/12/14 10:01:45;;;;;;;6.40;5.65;;;;;;;17.22;32.19;94247.34;5095652;28;20044;-51
2020/12/14 10:04:12;;;;;;;9.00;6.82;;;;;;;17.00;32.29;94245.13;5096031;28;20056;-49
2020/12/14 10:06:39;;;;;;;7.13;6.22;;;;;;;17.01;32.35;94238.00;5095965;28;20048;-52
2020/12/14 10:09:06;;;;;;;7.35;6.65;;;;;;;17.16;32.57;94243.38;5095818;28;20473;-49
2020/12/14 10:11:35;;;;;;;6.80;5.38;;;;;;;17.33;32.01;94239.75;5095501;28;20044;-54
2020/12/14 10:14:03;;;;;;;7.13;6.05;;;;;;;17.16;32.00;94243.38;5095753;28;20044;-47
2020/12/14 10:16:30;;;;;;;6.97;5.47;;;;;;;17.23;32.25;94237.56;5095799;28;20051;-50
2020/12/14 10:18:58;;;;;;;7.43;5.97;;;;;;;17.16;32.33;94232.03;5095757;28;20055;-50
2020/12/14 10:21:25;;;;;;;7.45;6.07;;;;;;;17.13;32.38;94241.41;5094651;28;20362;-49
2020/12/14 10:23:52;;;;;;;6.90;6.00;;;;;;;17.36;32.16;94241.72;5095317;28;20056;-49
2020/12/14 10:26:20;;;;;;;6.82;5.68;;;;;;;17.22;32.25;94236.03;5095644;28;20045;-52
2020/12/14 10:28:48;;;;;;;8.98;6.18;;;;;;;16.96;32.64;94238.97;5085196;28;20040;-49
2020/12/14 10:31:15;;;;;;;6.95;5.88;;;;;;;17.13;31.95;94244.03;5075240;28;20055;-49
2020/12/14 10:33:46;;;;;;;8.02;6.25;;;;;;;17.39;31.81;94241.06;5075467;28;20454;-50
2020/12/14 10:36:18;;;;;;;8.68;6.10;;;;;;;17.33;32.36;94254.84;5074473;28;20455;-50
2020/12/14 10:38:46;;;;;;;7.53;6.10;;;;;;;17.16;32.94;94235.44;5075262;28;20493;-53
2020/12/14 10:41:15;;;;;;;9.35;6.85;;;;;;;17.09;32.66;94243.16;5074980;28;20048;-50
2020/12/14 10:43:43;;;;;;;7.65;6.35;;;;;;;17.48;32.43;94243.59;5075018;28;20052;-53
2020/12/14 10:46:10;;;;;;;6.95;5.28;;;;;;;17.18;32.30;94243.84;5074923;28;20368;-53
2020/12/14 10:48:37;;;;;;;6.55;5.28;;;;;;;17.24;31.84;94247.78;5075144;28;20044;-54
2020/12/14 10:51:04;;;;;;;7.00;5.90;;;;;;;17.24;32.09;94252.31;5075009;28;20047;-51
2020/12/14 10:53:31;;;;;;;7.32;5.78;;;;;;;17.49;32.05;94245.16;5086747;28;20054;-52
2020/12/14 10:55:59;;;;;;;7.03;6.07;;;;;;;17.19;32.79;94242.75;5095068;28;20047;-52
2020/12/14 10:58:26;;;;;;;6.07;5.25;;;;;;;17.33;32.05;94241.63;5095389;28;20048;-50
2020/12/14 11:00:53;;;;;;;7.13;5.53;;;;;;;17.33;31.88;94231.81;5095278;28;20078;-49
2020/12/14 11:03:23;;;;;;;7.38;5.35;;;;;;;17.29;32.15;94240.75;5095086;28;20040;-48
2020/12/14 11:05:53;;;;;;;6.88;5.25;;;;;;;17.53;32.06;94230.16;5095460;28;20391;-51
2020/12/14 11:08:20;;;;;;;6.60;5.85;;;;;;;17.29;32.57;94246.81;5094960;28;20051;-52
2020/12/14 11:10:48;;;;;;;9.85;6.82;;;;;;;17.25;32.43;94241.41;5095159;28;20051;-51
2020/12/14 11:13:15;;;;;;;7.10;6.40;;;;;;;17.41;32.29;94243.38;5095068;28;20040;-50
2020/12/14 11:15:42;;;;;;;7.13;6.43;;;;;;;17.18;32.82;94245.72;5095070;28;20044;-51
2020/12/14 11:18:09;;;;;;;6.82;6.13;;;;;;;17.25;32.57;94244.06;5094915;28;20048;-48
2020/12/14 11:20:37;;;;;;;7.45;6.25;;;;;;;17.19;32.50;94245.38;5094973;28;20066;-48
2020/12/14 11:23:24;;;;;;;7.63;5.78;;;;;;;17.33;32.22;94241.63;5076728;28;20051;-48
2020/12/14 11:25:51;;;;;;;6.13;5.53;;;;;;;17.47;31.75;94242.84;5094628;28;20052;-52
2020/12/14 11:28:18;;;;;;;7.72;6.38;;;;;;;17.53;31.99;94246.03;5075874;28;20044;-50
2020/12/14 11:30:45;;;;;;;8.73;6.35;;;;;;;17.37;32.16;94253.06;5074633;28;20359;-50
2020/12/14 11:33:12;;;;;;;7.38;6.00;;;;;;;17.46;32.10;94245.81;5075632;28;20367;-48
2020/12/14 11:35:39;;;;;;;7.13;5.57;;;;;;;17.36;32.05;94240.97;5078503;28;20048;-51